UAL24 ZSPD-ZJSY
Flight info
| Callsign | UAL24 |
|---|---|
| Flight time | N/A |
| Altitude | 38100 |
| Route | NXD91D NXD W131 AKDIM A470 DUBGO W134 ELNEX A599 PLT W19 MASGU/K0833S1220 W19 NOMAR W18 NLG W23 ZUH R200 BIGRO G221 SAMAS/K0791S0840 G221 WL |
| Aircraft | B737/M-SDE2E3FGHIRWXY/LB1 |
Departure
| Time | 2026-05-07 14:12 |
|---|---|
| Airport | Shanghai Pudong International Airport (ZSPD) |
Arrival
| Time | N/A |
|---|---|
| Airport | Sanya Phoenix International Airport (ZJSY) |
| Time | Latitude | Longitude | Altitude | Speed | Heading |
|---|---|---|---|---|---|
| 2026-05-07 12:37 | 31.13192 | 121.80361 | 22 ft | 0 kts | 97° |
| 2026-05-07 14:03 | 31.13195 | 121.80333 | 22 ft | 4 kts | 97° |
| 2026-05-07 14:03 | 31.13198 | 121.80303 | 22 ft | 2 kts | 97° |
| 2026-05-07 14:03 | 31.13203 | 121.80276 | 22 ft | 4 kts | 115° |
| 2026-05-07 14:03 | 31.13218 | 121.80253 | 22 ft | 4 kts | 151° |
| 2026-05-07 14:04 | 31.13233 | 121.80246 | 22 ft | 1 kts | 162° |
| 2026-05-07 14:04 | 31.13235 | 121.80245 | 22 ft | 0 kts | 162° |
| 2026-05-07 14:06 | 31.13215 | 121.80253 | 22 ft | 5 kts | 161° |
| 2026-05-07 14:06 | 31.13177 | 121.80267 | 22 ft | 6 kts | 161° |
| 2026-05-07 14:06 | 31.13139 | 121.80282 | 23 ft | 6 kts | 162° |
| 2026-05-07 14:07 | 31.13102 | 121.80296 | 24 ft | 6 kts | 162° |
| 2026-05-07 14:07 | 31.13065 | 121.80309 | 22 ft | 5 kts | 162° |
| 2026-05-07 14:07 | 31.13029 | 121.80322 | 24 ft | 5 kts | 162° |
| 2026-05-07 14:07 | 31.12994 | 121.80335 | 22 ft | 6 kts | 162° |
| 2026-05-07 14:08 | 31.12954 | 121.80349 | 22 ft | 6 kts | 162° |
| 2026-05-07 14:08 | 31.12915 | 121.80363 | 24 ft | 6 kts | 162° |
| 2026-05-07 14:08 | 31.12877 | 121.80377 | 22 ft | 6 kts | 162° |
| 2026-05-07 14:08 | 31.12838 | 121.80389 | 22 ft | 6 kts | 178° |
| 2026-05-07 14:09 | 31.12820 | 121.80354 | 22 ft | 6 kts | 268° |
| 2026-05-07 14:09 | 31.12818 | 121.80302 | 22 ft | 7 kts | 268° |
| 2026-05-07 14:09 | 31.12810 | 121.80247 | 22 ft | 7 kts | 257° |
| 2026-05-07 14:09 | 31.12796 | 121.80194 | 22 ft | 7 kts | 251° |
| 2026-05-07 14:10 | 31.12780 | 121.80142 | 22 ft | 7 kts | 251° |
| 2026-05-07 14:10 | 31.12765 | 121.80091 | 24 ft | 7 kts | 251° |
| 2026-05-07 14:10 | 31.12751 | 121.80042 | 24 ft | 6 kts | 251° |
| 2026-05-07 14:10 | 31.12736 | 121.79993 | 22 ft | 6 kts | 251° |
| 2026-05-07 14:11 | 31.12722 | 121.79945 | 22 ft | 6 kts | 251° |
| 2026-05-07 14:11 | 31.12721 | 121.79896 | 23 ft | 7 kts | 297° |
| 2026-05-07 14:11 | 31.12766 | 121.79866 | 22 ft | 9 kts | 338° |
| 2026-05-07 14:11 | 31.12903 | 121.79815 | 21 ft | 51 kts | 342° |
| 2026-05-07 14:12 | 31.13493 | 121.79594 | 22 ft | 124 kts | 342° |
| 2026-05-07 14:12 | 31.14447 | 121.79251 | 388 ft | 147 kts | 343° |
| 2026-05-07 14:12 | 31.15418 | 121.78830 | 1140 ft | 156 kts | 340° |
| 2026-05-07 14:12 | 31.16483 | 121.78370 | 1737 ft | 174 kts | 344° |
| 2026-05-07 14:13 | 31.17742 | 121.77887 | 1997 ft | 205 kts | 344° |
| 2026-05-07 14:13 | 31.19160 | 121.77337 | 2448 ft | 223 kts | 343° |
| 2026-05-07 14:13 | 31.20713 | 121.76729 | 2874 ft | 243 kts | 343° |
| 2026-05-07 14:13 | 31.22339 | 121.76090 | 3819 ft | 247 kts | 343° |
| 2026-05-07 14:14 | 31.23988 | 121.75442 | 4722 ft | 255 kts | 342° |
| 2026-05-07 14:14 | 31.25699 | 121.74767 | 5577 ft | 263 kts | 341° |
| 2026-05-07 14:14 | 31.27452 | 121.74073 | 6462 ft | 269 kts | 340° |
| 2026-05-07 14:14 | 31.29239 | 121.73364 | 7374 ft | 274 kts | 340° |
| 2026-05-07 14:15 | 31.31037 | 121.72653 | 8267 ft | 277 kts | 339° |
| 2026-05-07 14:15 | 31.32705 | 121.71543 | 9119 ft | 278 kts | 313° |
| 2026-05-07 14:15 | 31.33749 | 121.69655 | 10016 ft | 279 kts | 289° |
| 2026-05-07 14:15 | 31.34124 | 121.67401 | 10613 ft | 293 kts | 269° |
| 2026-05-07 14:16 | 31.33835 | 121.64934 | 10832 ft | 319 kts | 259° |
| 2026-05-07 14:16 | 31.33380 | 121.62320 | 11296 ft | 334 kts | 258° |
| 2026-05-07 14:16 | 31.32905 | 121.59663 | 11779 ft | 333 kts | 258° |
| 2026-05-07 14:16 | 31.32443 | 121.56977 | 11832 ft | 338 kts | 259° |
| 2026-05-07 14:17 | 31.31999 | 121.54318 | 11831 ft | 336 kts | 259° |
| 2026-05-07 14:17 | 31.31556 | 121.51636 | 11841 ft | 336 kts | 259° |
| 2026-05-07 14:17 | 31.31113 | 121.48947 | 11847 ft | 336 kts | 259° |
| 2026-05-07 14:17 | 31.30669 | 121.46255 | 11847 ft | 336 kts | 259° |
| 2026-05-07 14:18 | 31.30225 | 121.43565 | 11849 ft | 336 kts | 259° |
| 2026-05-07 14:18 | 31.29780 | 121.40880 | 11850 ft | 336 kts | 259° |
| 2026-05-07 14:18 | 31.29335 | 121.38192 | 11846 ft | 337 kts | 259° |
| 2026-05-07 14:18 | 31.28878 | 121.35509 | 11848 ft | 337 kts | 256° |
| 2026-05-07 14:19 | 31.27937 | 121.33011 | 11856 ft | 337 kts | 237° |
| 2026-05-07 14:19 | 31.26353 | 121.30980 | 11859 ft | 340 kts | 223° |
| 2026-05-07 14:19 | 31.24551 | 121.29237 | 11854 ft | 341 kts | 221° |
| 2026-05-07 14:19 | 31.22698 | 121.27511 | 11860 ft | 341 kts | 220° |
| 2026-05-07 14:20 | 31.20845 | 121.25781 | 11843 ft | 341 kts | 221° |
| 2026-05-07 14:20 | 31.19000 | 121.24039 | 11850 ft | 340 kts | 221° |
| 2026-05-07 14:20 | 31.17161 | 121.22284 | 11851 ft | 340 kts | 221° |
| 2026-05-07 14:20 | 31.15326 | 121.20528 | 11846 ft | 340 kts | 221° |
| 2026-05-07 14:21 | 31.13492 | 121.18770 | 11858 ft | 341 kts | 221° |
| 2026-05-07 14:21 | 31.11661 | 121.17016 | 12399 ft | 347 kts | 221° |
| 2026-05-07 14:21 | 31.09799 | 121.15234 | 13349 ft | 346 kts | 221° |
| 2026-05-07 14:21 | 31.07979 | 121.13397 | 14191 ft | 346 kts | 230° |
| 2026-05-07 14:22 | 31.06654 | 121.11057 | 14941 ft | 347 kts | 248° |
| 2026-05-07 14:22 | 31.05874 | 121.08391 | 15780 ft | 348 kts | 255° |
| 2026-05-07 14:22 | 31.05208 | 121.05676 | 16597 ft | 350 kts | 256° |
| 2026-05-07 14:22 | 31.04560 | 121.02923 | 17354 ft | 353 kts | 256° |
| 2026-05-07 14:23 | 31.03906 | 121.00148 | 18092 ft | 356 kts | 256° |
| 2026-05-07 14:23 | 31.03241 | 120.97360 | 18833 ft | 358 kts | 256° |
| 2026-05-07 14:23 | 31.02560 | 120.94550 | 19516 ft | 361 kts | 256° |
| 2026-05-07 14:23 | 31.01868 | 120.91722 | 20138 ft | 365 kts | 256° |
| 2026-05-07 14:24 | 31.01173 | 120.88902 | 20739 ft | 368 kts | 256° |
| 2026-05-07 14:24 | 31.00459 | 120.86013 | 21197 ft | 375 kts | 255° |
| 2026-05-07 14:24 | 30.99728 | 120.83063 | 21614 ft | 381 kts | 256° |
| 2026-05-07 14:24 | 30.98989 | 120.80089 | 22131 ft | 384 kts | 256° |
| 2026-05-07 14:25 | 30.98243 | 120.77094 | 22684 ft | 385 kts | 255° |
| 2026-05-07 14:25 | 30.97494 | 120.74090 | 23184 ft | 387 kts | 255° |
| 2026-05-07 14:25 | 30.96739 | 120.71067 | 23633 ft | 390 kts | 256° |
| 2026-05-07 14:25 | 30.95980 | 120.68026 | 24088 ft | 392 kts | 256° |
| 2026-05-07 14:26 | 30.95213 | 120.64961 | 24546 ft | 394 kts | 255° |
| 2026-05-07 14:26 | 30.94443 | 120.61886 | 25004 ft | 395 kts | 255° |
| 2026-05-07 14:26 | 30.93669 | 120.58793 | 25417 ft | 398 kts | 255° |
| 2026-05-07 14:26 | 30.92891 | 120.55690 | 25797 ft | 400 kts | 255° |
| 2026-05-07 14:27 | 30.92120 | 120.52615 | 26199 ft | 402 kts | 255° |
| 2026-05-07 14:27 | 30.91333 | 120.49484 | 26572 ft | 404 kts | 255° |
| 2026-05-07 14:27 | 30.90515 | 120.46340 | 26965 ft | 406 kts | 251° |
| 2026-05-07 14:27 | 30.89171 | 120.43417 | 27303 ft | 414 kts | 238° |
| 2026-05-07 14:28 | 30.87240 | 120.40898 | 27652 ft | 423 kts | 225° |
| 2026-05-07 14:28 | 30.84878 | 120.38813 | 28048 ft | 427 kts | 220° |
| 2026-05-07 14:28 | 30.82436 | 120.36828 | 28416 ft | 429 kts | 220° |
| 2026-05-07 14:28 | 30.79967 | 120.34861 | 28727 ft | 432 kts | 219° |
| 2026-05-07 14:29 | 30.77486 | 120.32881 | 29021 ft | 433 kts | 220° |
| 2026-05-07 14:29 | 30.74999 | 120.30877 | 29335 ft | 435 kts | 220° |
| 2026-05-07 14:29 | 30.72509 | 120.28853 | 29630 ft | 437 kts | 220° |
| 2026-05-07 14:29 | 30.70025 | 120.26823 | 30042 ft | 435 kts | 220° |
| 2026-05-07 14:30 | 30.67565 | 120.24810 | 30596 ft | 430 kts | 220° |
| 2026-05-07 14:30 | 30.65154 | 120.22832 | 31063 ft | 428 kts | 220° |
| 2026-05-07 14:30 | 30.62719 | 120.20835 | 31503 ft | 427 kts | 220° |
| 2026-05-07 14:30 | 30.60302 | 120.18854 | 31979 ft | 425 kts | 220° |
| 2026-05-07 14:31 | 30.57890 | 120.16880 | 32459 ft | 422 kts | 221° |
| 2026-05-07 14:31 | 30.55499 | 120.14923 | 32953 ft | 419 kts | 221° |
| 2026-05-07 14:31 | 30.53120 | 120.12978 | 33398 ft | 417 kts | 221° |
| 2026-05-07 14:31 | 30.50758 | 120.11047 | 33882 ft | 414 kts | 221° |
| 2026-05-07 14:32 | 30.48414 | 120.09131 | 34337 ft | 411 kts | 221° |
| 2026-05-07 14:32 | 30.46077 | 120.07224 | 34683 ft | 410 kts | 221° |
| 2026-05-07 14:32 | 30.43735 | 120.05321 | 34899 ft | 413 kts | 220° |
| 2026-05-07 14:32 | 30.41262 | 120.03574 | 35130 ft | 418 kts | 217° |
| 2026-05-07 14:33 | 30.38740 | 120.01899 | 35426 ft | 418 kts | 216° |
| 2026-05-07 14:33 | 30.36208 | 120.00237 | 35732 ft | 417 kts | 216° |
| 2026-05-07 14:33 | 30.33684 | 119.98581 | 36015 ft | 417 kts | 217° |
| 2026-05-07 14:33 | 30.31158 | 119.96917 | 36204 ft | 419 kts | 217° |
| 2026-05-07 14:34 | 30.28645 | 119.95254 | 36185 ft | 422 kts | 217° |
| 2026-05-07 14:34 | 30.23559 | 119.91886 | 36197 ft | 419 kts | 217° |
| 2026-05-07 14:35 | 30.18519 | 119.88552 | 36191 ft | 416 kts | 217° |
| 2026-05-07 14:35 | 30.13522 | 119.85237 | 36190 ft | 413 kts | 217° |
| 2026-05-07 14:36 | 30.08534 | 119.81938 | 36210 ft | 412 kts | 217° |
| 2026-05-07 14:36 | 30.03513 | 119.78685 | 36179 ft | 415 kts | 217° |
| 2026-05-07 14:37 | 29.98617 | 119.75300 | 36200 ft | 413 kts | 218° |
| 2026-05-07 14:37 | 29.91137 | 119.70279 | 36200 ft | 415 kts | 217° |
| 2026-05-07 14:38 | 29.86976 | 119.67492 | 36196 ft | 417 kts | 217° |
| 2026-05-07 14:38 | 29.81348 | 119.63306 | 36206 ft | 412 kts | 221° |
| 2026-05-07 14:39 | 29.77408 | 119.60176 | 36209 ft | 414 kts | 221° |
| 2026-05-07 14:39 | 29.72630 | 119.56381 | 36176 ft | 418 kts | 223° |
| 2026-05-07 14:40 | 29.67806 | 119.52582 | 36202 ft | 421 kts | 220° |
| 2026-05-07 14:40 | 29.63043 | 119.48676 | 36202 ft | 416 kts | 227° |
| 2026-05-07 14:41 | 29.59148 | 119.43874 | 36205 ft | 409 kts | 234° |
| 2026-05-07 14:41 | 29.55329 | 119.38998 | 36206 ft | 409 kts | 234° |
| 2026-05-07 14:42 | 29.51585 | 119.34127 | 36203 ft | 409 kts | 233° |
| 2026-05-07 14:42 | 29.47760 | 119.29291 | 36206 ft | 409 kts | 233° |
| 2026-05-07 14:43 | 29.43932 | 119.24456 | 36184 ft | 410 kts | 233° |
| 2026-05-07 14:43 | 29.40099 | 119.19610 | 36216 ft | 410 kts | 233° |
| 2026-05-07 14:44 | 29.36285 | 119.14789 | 36204 ft | 410 kts | 233° |
| 2026-05-07 14:44 | 29.32455 | 119.09943 | 36206 ft | 409 kts | 233° |
| 2026-05-07 14:45 | 29.28636 | 119.05105 | 36201 ft | 409 kts | 233° |
| 2026-05-07 14:45 | 29.24813 | 119.00271 | 36200 ft | 410 kts | 233° |
| 2026-05-07 14:46 | 29.20961 | 118.95419 | 36190 ft | 412 kts | 233° |
| 2026-05-07 14:46 | 29.17100 | 118.90571 | 36201 ft | 412 kts | 233° |
| 2026-05-07 14:47 | 29.13252 | 118.85753 | 36189 ft | 412 kts | 233° |
| 2026-05-07 14:47 | 29.09379 | 118.80902 | 36183 ft | 413 kts | 233° |
| 2026-05-07 14:48 | 29.05503 | 118.76052 | 36181 ft | 412 kts | 233° |
| 2026-05-07 14:48 | 29.01637 | 118.71221 | 36182 ft | 411 kts | 233° |
| 2026-05-07 14:49 | 28.97797 | 118.66423 | 36185 ft | 411 kts | 233° |
| 2026-05-07 14:49 | 28.93932 | 118.61599 | 36181 ft | 412 kts | 233° |
| 2026-05-07 14:50 | 28.90055 | 118.56769 | 36185 ft | 413 kts | 233° |
| 2026-05-07 14:50 | 28.86171 | 118.51935 | 36179 ft | 414 kts | 233° |
| 2026-05-07 14:51 | 28.82279 | 118.47099 | 36179 ft | 414 kts | 233° |
| 2026-05-07 14:51 | 28.78379 | 118.42259 | 36177 ft | 414 kts | 233° |
| 2026-05-07 14:52 | 28.74472 | 118.37415 | 36215 ft | 418 kts | 233° |
| 2026-05-07 14:52 | 28.72497 | 118.34967 | 36418 ft | 419 kts | 233° |
| 2026-05-07 14:52 | 28.70526 | 118.32527 | 36706 ft | 418 kts | 233° |
| 2026-05-07 14:53 | 28.68565 | 118.30102 | 37039 ft | 415 kts | 233° |
| 2026-05-07 14:53 | 28.66637 | 118.27721 | 37434 ft | 411 kts | 234° |
| 2026-05-07 14:53 | 28.64711 | 118.25343 | 37817 ft | 406 kts | 234° |
| 2026-05-07 14:53 | 28.62798 | 118.22981 | 38108 ft | 405 kts | 234° |
| 2026-05-07 14:54 | 28.58950 | 118.18226 | 38169 ft | 410 kts | 234° |
| 2026-05-07 14:54 | 28.55086 | 118.13463 | 38170 ft | 408 kts | 234° |
| 2026-05-07 14:55 | 28.51236 | 118.08726 | 38163 ft | 406 kts | 234° |
| 2026-05-07 14:55 | 28.47411 | 118.04020 | 38171 ft | 404 kts | 234° |
| 2026-05-07 14:56 | 28.43598 | 117.99333 | 38180 ft | 403 kts | 235° |
| 2026-05-07 14:56 | 28.39788 | 117.94701 | 38189 ft | 404 kts | 234° |
| 2026-05-07 14:57 | 28.35872 | 117.90092 | 38180 ft | 405 kts | 233° |
| 2026-05-07 14:57 | 28.31950 | 117.85490 | 38176 ft | 406 kts | 233° |
| 2026-05-07 14:58 | 28.28013 | 117.80861 | 38171 ft | 407 kts | 233° |
| 2026-05-07 14:58 | 28.24074 | 117.76225 | 38166 ft | 409 kts | 233° |
| 2026-05-07 14:59 | 28.20144 | 117.71605 | 38160 ft | 410 kts | 233° |
| 2026-05-07 14:59 | 28.16172 | 117.66941 | 38158 ft | 411 kts | 233° |
| 2026-05-07 15:00 | 28.12199 | 117.62281 | 38151 ft | 411 kts | 233° |
| 2026-05-07 15:00 | 28.08233 | 117.57633 | 38162 ft | 410 kts | 233° |
| 2026-05-07 15:01 | 28.04262 | 117.52989 | 38131 ft | 410 kts | 233° |
| 2026-05-07 15:01 | 28.00314 | 117.48378 | 38151 ft | 407 kts | 233° |
| 2026-05-07 15:02 | 27.96374 | 117.43765 | 38140 ft | 407 kts | 233° |
| 2026-05-07 15:02 | 27.92455 | 117.39183 | 38123 ft | 408 kts | 233° |
| 2026-05-07 15:03 | 27.88510 | 117.34579 | 38160 ft | 408 kts | 233° |
| 2026-05-07 15:03 | 27.84540 | 117.29953 | 38144 ft | 412 kts | 233° |
| 2026-05-07 15:04 | 27.80530 | 117.25282 | 38140 ft | 414 kts | 233° |
| 2026-05-07 15:04 | 27.76507 | 117.20611 | 38126 ft | 415 kts | 233° |
| 2026-05-07 15:05 | 27.72494 | 117.15949 | 38135 ft | 415 kts | 233° |
| 2026-05-07 15:05 | 27.68469 | 117.11274 | 38144 ft | 416 kts | 233° |
| 2026-05-07 15:06 | 27.64461 | 117.06628 | 38144 ft | 416 kts | 233° |
| 2026-05-07 15:06 | 27.60416 | 117.01949 | 38141 ft | 415 kts | 232° |
| 2026-05-07 15:07 | 27.56388 | 116.97287 | 38151 ft | 415 kts | 232° |
| 2026-05-07 15:07 | 27.52353 | 116.92629 | 38147 ft | 414 kts | 232° |
| 2026-05-07 15:08 | 27.48380 | 116.88001 | 38129 ft | 413 kts | 233° |
| 2026-05-07 15:08 | 27.44404 | 116.83339 | 38149 ft | 412 kts | 233° |
| 2026-05-07 15:09 | 27.40435 | 116.78692 | 38130 ft | 411 kts | 233° |
| 2026-05-07 15:09 | 27.36468 | 116.74055 | 38133 ft | 410 kts | 233° |
| 2026-05-07 15:10 | 27.32505 | 116.69432 | 38130 ft | 411 kts | 232° |
| 2026-05-07 15:10 | 27.28535 | 116.64799 | 38120 ft | 411 kts | 233° |
| 2026-05-07 15:11 | 27.24571 | 116.60184 | 38143 ft | 415 kts | 232° |
| 2026-05-07 15:11 | 27.20541 | 116.55499 | 38135 ft | 417 kts | 233° |
| 2026-05-07 15:12 | 27.16580 | 116.50738 | 38128 ft | 418 kts | 234° |
| 2026-05-07 15:12 | 27.12632 | 116.45925 | 38128 ft | 418 kts | 233° |
| 2026-05-07 15:13 | 27.08680 | 116.41130 | 38131 ft | 418 kts | 233° |
| 2026-05-07 15:13 | 27.04754 | 116.36384 | 38123 ft | 418 kts | 233° |
| 2026-05-07 15:14 | 27.00803 | 116.31614 | 38133 ft | 417 kts | 233° |
| 2026-05-07 15:14 | 26.96857 | 116.26855 | 38146 ft | 416 kts | 233° |
| 2026-05-07 15:15 | 26.92925 | 116.22117 | 38158 ft | 413 kts | 233° |
| 2026-05-07 15:15 | 26.89023 | 116.17397 | 38135 ft | 412 kts | 234° |
| 2026-05-07 15:16 | 26.85145 | 116.12673 | 38147 ft | 411 kts | 234° |
| 2026-05-07 15:16 | 26.81276 | 116.07963 | 38133 ft | 411 kts | 234° |
| 2026-05-07 15:17 | 26.77407 | 116.03259 | 38149 ft | 410 kts | 234° |
| 2026-05-07 15:17 | 26.73541 | 115.98565 | 38145 ft | 410 kts | 234° |
| 2026-05-07 15:18 | 26.69691 | 115.93897 | 38145 ft | 411 kts | 233° |
| 2026-05-07 15:18 | 26.65807 | 115.89196 | 38134 ft | 412 kts | 233° |
| 2026-05-07 15:19 | 26.61905 | 115.84477 | 38128 ft | 413 kts | 233° |
| 2026-05-07 15:19 | 26.57997 | 115.79756 | 38133 ft | 414 kts | 233° |
| 2026-05-07 15:20 | 26.54077 | 115.75026 | 38142 ft | 414 kts | 233° |
| 2026-05-07 15:20 | 26.50187 | 115.70333 | 38130 ft | 415 kts | 233° |
| 2026-05-07 15:21 | 26.46258 | 115.65600 | 38129 ft | 415 kts | 233° |
| 2026-05-07 15:21 | 26.42322 | 115.60865 | 38119 ft | 415 kts | 234° |
| 2026-05-07 15:22 | 26.38403 | 115.56148 | 38131 ft | 414 kts | 233° |
| 2026-05-07 15:22 | 26.34494 | 115.51465 | 38131 ft | 414 kts | 233° |
| 2026-05-07 15:23 | 26.30573 | 115.46765 | 38143 ft | 414 kts | 233° |
| 2026-05-07 15:23 | 26.26647 | 115.42059 | 38129 ft | 414 kts | 233° |
| 2026-05-07 15:24 | 26.22715 | 115.37358 | 38132 ft | 414 kts | 233° |
| 2026-05-07 15:24 | 26.18782 | 115.32657 | 38133 ft | 414 kts | 233° |
| 2026-05-07 15:25 | 26.14858 | 115.27969 | 38136 ft | 414 kts | 233° |
| 2026-05-07 15:25 | 26.10945 | 115.23302 | 38147 ft | 414 kts | 233° |
| 2026-05-07 15:26 | 26.07012 | 115.18614 | 38135 ft | 415 kts | 233° |
| 2026-05-07 15:26 | 26.03071 | 115.13924 | 38125 ft | 414 kts | 233° |
| 2026-05-07 15:27 | 25.99135 | 115.09243 | 38126 ft | 414 kts | 233° |
| 2026-05-07 15:27 | 25.95221 | 115.04559 | 38142 ft | 413 kts | 233° |
| 2026-05-07 15:28 | 25.91291 | 114.99919 | 38124 ft | 415 kts | 233° |
| 2026-05-07 15:28 | 25.87997 | 114.96022 | 38132 ft | 416 kts | 233° |
| 2026-05-07 15:29 | 25.84017 | 114.91317 | 38131 ft | 419 kts | 231° |
| 2026-05-07 15:29 | 25.81758 | 114.89216 | 38126 ft | 429 kts | 220° |
| 2026-05-07 15:29 | 25.79162 | 114.87535 | 38132 ft | 436 kts | 212° |
| 2026-05-07 15:30 | 25.76310 | 114.86275 | 38119 ft | 447 kts | 202° |
| 2026-05-07 15:30 | 25.73278 | 114.85449 | 38134 ft | 450 kts | 200° |
| 2026-05-07 15:30 | 25.67142 | 114.83999 | 38122 ft | 452 kts | 199° |
| 2026-05-07 15:31 | 25.60979 | 114.82548 | 38115 ft | 451 kts | 199° |
| 2026-05-07 15:31 | 25.54892 | 114.81064 | 38114 ft | 449 kts | 199° |
| 2026-05-07 15:32 | 25.48791 | 114.79552 | 38118 ft | 449 kts | 200° |
| 2026-05-07 15:32 | 25.42694 | 114.78038 | 38107 ft | 448 kts | 200° |
| 2026-05-07 15:33 | 25.36606 | 114.76529 | 38106 ft | 448 kts | 200° |
| 2026-05-07 15:33 | 25.30522 | 114.75023 | 38097 ft | 447 kts | 199° |
| 2026-05-07 15:34 | 25.24457 | 114.73525 | 38098 ft | 446 kts | 199° |
| 2026-05-07 15:34 | 25.18427 | 114.72036 | 38100 ft | 447 kts | 199° |
| 2026-05-07 15:35 | 25.12362 | 114.70537 | 38095 ft | 446 kts | 199° |
| 2026-05-07 15:35 | 25.06303 | 114.69047 | 38090 ft | 447 kts | 199° |
| 2026-05-07 15:36 | 25.00224 | 114.67550 | 38094 ft | 448 kts | 199° |
| 2026-05-07 15:36 | 24.94127 | 114.66051 | 38098 ft | 449 kts | 199° |
| 2026-05-07 15:37 | 24.88018 | 114.64550 | 38090 ft | 450 kts | 199° |
| 2026-05-07 15:37 | 24.81932 | 114.63066 | 38089 ft | 451 kts | 199° |
| 2026-05-07 15:38 | 24.75785 | 114.61579 | 38084 ft | 452 kts | 199° |
| 2026-05-07 15:38 | 24.69739 | 114.59839 | 38083 ft | 444 kts | 208° |
| 2026-05-07 15:39 | 24.64357 | 114.56707 | 38079 ft | 436 kts | 217° |
| 2026-05-07 15:39 | 24.59125 | 114.53294 | 38081 ft | 437 kts | 217° |
| 2026-05-07 15:40 | 24.53864 | 114.49924 | 38077 ft | 438 kts | 216° |
| 2026-05-07 15:40 | 24.48577 | 114.46582 | 38090 ft | 439 kts | 216° |
| 2026-05-07 15:41 | 24.43311 | 114.43255 | 38095 ft | 438 kts | 216° |
| 2026-05-07 15:41 | 24.38015 | 114.39931 | 38092 ft | 438 kts | 216° |
| 2026-05-07 15:42 | 24.32697 | 114.36613 | 38077 ft | 440 kts | 216° |
| 2026-05-07 15:42 | 24.27373 | 114.33286 | 38077 ft | 441 kts | 216° |
| 2026-05-07 15:43 | 24.22071 | 114.29979 | 38076 ft | 441 kts | 216° |
| 2026-05-07 15:43 | 24.16726 | 114.26653 | 38061 ft | 442 kts | 216° |
| 2026-05-07 15:44 | 24.11380 | 114.23318 | 38075 ft | 442 kts | 215° |
| 2026-05-07 15:44 | 24.06016 | 114.19980 | 38064 ft | 443 kts | 216° |
| 2026-05-07 15:45 | 24.00662 | 114.16645 | 38074 ft | 442 kts | 216° |
| 2026-05-07 15:45 | 23.95355 | 114.13338 | 38073 ft | 442 kts | 215° |
| 2026-05-07 15:46 | 23.87327 | 114.08341 | 38071 ft | 441 kts | 216° |
| 2026-05-07 15:47 | 23.81989 | 114.05026 | 38072 ft | 441 kts | 216° |
| 2026-05-07 15:47 | 23.76665 | 114.01724 | 38087 ft | 439 kts | 215° |
| 2026-05-07 15:48 | 23.71369 | 113.98434 | 38086 ft | 437 kts | 215° |
| 2026-05-07 15:48 | 23.66071 | 113.95149 | 38076 ft | 439 kts | 215° |
| 2026-05-07 15:49 | 23.60782 | 113.91873 | 38079 ft | 439 kts | 215° |
| 2026-05-07 15:49 | 23.55444 | 113.88571 | 38084 ft | 441 kts | 215° |
| 2026-05-07 15:50 | 23.49996 | 113.85441 | 38063 ft | 449 kts | 206° |
| 2026-05-07 15:50 | 23.43984 | 113.83505 | 38073 ft | 455 kts | 200° |
| 2026-05-07 15:51 | 23.37841 | 113.81732 | 38074 ft | 456 kts | 200° |
| 2026-05-07 15:51 | 23.31708 | 113.79923 | 38060 ft | 456 kts | 200° |
| 2026-05-07 15:52 | 23.25631 | 113.78095 | 38066 ft | 456 kts | 200° |
| 2026-05-07 15:52 | 23.19507 | 113.76244 | 38063 ft | 456 kts | 200° |
| 2026-05-07 15:53 | 23.13392 | 113.74398 | 38059 ft | 456 kts | 200° |
| 2026-05-07 15:53 | 23.07278 | 113.72556 | 38063 ft | 455 kts | 200° |
| 2026-05-07 15:54 | 23.01186 | 113.70723 | 38062 ft | 454 kts | 200° |
| 2026-05-07 15:54 | 22.95137 | 113.68905 | 38061 ft | 454 kts | 200° |
| 2026-05-07 15:55 | 22.89049 | 113.67076 | 38067 ft | 453 kts | 200° |
| 2026-05-07 15:55 | 22.82967 | 113.65235 | 38062 ft | 453 kts | 200° |
| 2026-05-07 15:56 | 22.76882 | 113.63383 | 38062 ft | 453 kts | 200° |
| 2026-05-07 15:56 | 22.70810 | 113.61537 | 38062 ft | 453 kts | 200° |
| 2026-05-07 15:57 | 22.64772 | 113.59706 | 38065 ft | 453 kts | 200° |
| 2026-05-07 15:57 | 22.58694 | 113.57864 | 38063 ft | 453 kts | 200° |
| 2026-05-07 15:58 | 22.52610 | 113.56021 | 38065 ft | 453 kts | 200° |
| 2026-05-07 15:58 | 22.46530 | 113.54160 | 38063 ft | 454 kts | 200° |
| 2026-05-07 15:59 | 22.40489 | 113.52303 | 38061 ft | 455 kts | 200° |
| 2026-05-07 15:59 | 22.34389 | 113.50431 | 38066 ft | 455 kts | 200° |
| 2026-05-07 16:00 | 22.28284 | 113.48561 | 38068 ft | 456 kts | 200° |
| 2026-05-07 16:00 | 22.25294 | 113.47450 | 38038 ft | 450 kts | 212° |
| 2026-05-07 16:00 | 22.22795 | 113.45505 | 38086 ft | 439 kts | 228° |
| 2026-05-07 16:00 | 22.20866 | 113.42981 | 38055 ft | 432 kts | 243° |
| 2026-05-07 16:01 | 22.19575 | 113.40088 | 38075 ft | 428 kts | 251° |
| 2026-05-07 16:01 | 22.17439 | 113.34103 | 38057 ft | 428 kts | 252° |
| 2026-05-07 16:02 | 22.15284 | 113.28152 | 38062 ft | 429 kts | 251° |
| 2026-05-07 16:02 | 22.13019 | 113.22192 | 38062 ft | 430 kts | 249° |
| 2026-05-07 16:03 | 22.10571 | 113.16297 | 38053 ft | 430 kts | 249° |
| 2026-05-07 16:03 | 22.08109 | 113.10412 | 38063 ft | 431 kts | 249° |
| 2026-05-07 16:04 | 22.05662 | 113.04504 | 38062 ft | 431 kts | 249° |
| 2026-05-07 16:04 | 22.03245 | 112.98638 | 38061 ft | 430 kts | 250° |
| 2026-05-07 16:05 | 22.00909 | 112.92653 | 38068 ft | 430 kts | 250° |
| 2026-05-07 16:05 | 21.98615 | 112.86736 | 38056 ft | 431 kts | 250° |
| 2026-05-07 16:06 | 21.96276 | 112.80772 | 38066 ft | 432 kts | 249° |
| 2026-05-07 16:06 | 21.93893 | 112.74826 | 38063 ft | 433 kts | 249° |
| 2026-05-07 16:07 | 21.91491 | 112.68861 | 38063 ft | 434 kts | 249° |
| 2026-05-07 16:07 | 21.89107 | 112.62927 | 38063 ft | 435 kts | 249° |
| 2026-05-07 16:08 | 21.86702 | 112.56945 | 38067 ft | 435 kts | 249° |
| 2026-05-07 16:08 | 21.84300 | 112.50954 | 38062 ft | 435 kts | 249° |
| 2026-05-07 16:09 | 21.81916 | 112.44952 | 38064 ft | 435 kts | 249° |
| 2026-05-07 16:09 | 21.79531 | 112.38951 | 38064 ft | 435 kts | 249° |